Airfield :
LOGIN :

Register | Disclaimer

   EN    FR    IT 

 










Legend :    VFR   Marginal VFR   IFR   Intensive IFR   Very Intensive IFR
Visi :
Ceiling :
>= 8 km
>= 3000ft
5 to 8 km
1000 to 3000 ft
1500m to 5 km
500 to 1000 ft
800 to 1500m
200 to 500 ft
< 800m
< 200 ft
Symbols :   Thunderstorms  Fog  Heavy snow  Heavy precipitations  Wind > 20 kt
SIGMETs :     Misc.  Thunderstorms  Icing  Turbulence  Mountain Waves  Volcanic Ashes







- Airport Elevation : 235 ft
- IATA code : BZG


EPBY - Bydgoszcz

CURRENT METAR :
  • 121530Z 24017G28KT 9999 OVC028 05/M01 Q1001

EXPIRED METARs :
  • 121500Z 23018KT 9999 BKN029 OVC032 05/M01 Q1000
  • 121430Z 24021G36KT 210V270 9999 SCT027 OVC032 05/M00 Q1000
  • 121400Z 23020G32KT 9999 BKN028 OVC032 06/00 Q0999
  • 121330Z 24023G39KT 9999 FEW041 BKN047 06/00 Q0997
  • 121300Z 24022G35KT 9999 SCT028 BKN031CB BKN045 07/02 Q0997

TAF TAF EPBY
Valid from the 12 at 12:00 until the 13 at 12:00 UTC


121130Z 1212/1312 23014KT 9999 BKN025
TEMPO 1212/1222 25020G36KT -SHRA BKN015TCU
PROB40 1212/1222 -RA BKN005 BKN010
PROB40 1221/1306 BKN005
No reported NOTAMs for that airfield.
1 SIGMET reported for the Warszawa FIR (EPWW) :
 
Severe turbulence
Turbulence
EPWW SIGMET 5 VALID 121415/121615 EPWA
EPWW WARSAW FIR SEV TURB FCST WI N5100 E01450 - N5420 E02020 - N5410 E02300 - N5010 E01630 - N5100 E01450 SFC/FL100 STNR NC AND SEV TURB FCST SE OF LINE N4930 E01920 - N5210 E02300 SFC/FL100 STNR WKN AND SEV TURB FCST WI N5100 E01450 - N5420 E02020 - N5410 E02300 - N5010 E01630 - N5100 E01450 FL210/340 MOV NE NC=



MET'MAP, your aeronautical weather chart ! - Copyright ORBIFLY December 2007 - Disclaimer

ORBIFLY MET'MAP TEAM :

Programming & Development : Alexandra Zaïnal
Concept & Development : Baudouin d'Aumeries
Co-Development & Prog : Marc-Olivier Méhu
Technical & hardware support : Manuel Goepfert

Contact : metmap@orbifly.com




SOURCES & CREDITS :

   NOAA